Oakdale, Kentucky
Current Conditions -  °F | °C
As of 11:53 PM on Friday 19 Dec 2014 (Local Time) from KPAH Reporting Station
Overcast Overcast  
Wind Chill: 34°   Ceiling: 5500
Heat Index: 34°   Visibility: 9mi
Dew Point: 28°   Wind: 3mph
Humidity: 79%   Direction: 40°NE
Pressure: 30.26"   Gusts: NA
Location:  37.0331°N, 88.716°W
Report Text: KPAH 200553Z AUTO 04003KT 9SM OVC055 01/M02 A3026 RMK AO2 SLP250 T00111022 10033 20011 400560006 50004
Loading
Personal Weather Stations






























Interactive Weather Map New forecast layout! Learn more

10-Day Weather Forecast

Advertisements
Track Severe Weather on mobile